sensor_id;sensor_type;location;lat;lon;timestamp;pressure;altitude;pressure_sealevel;temperature;humidity
70217;BME280;57608;0.000;0.000;2022-09-30T00:01:20;98927.38;;;22.27;40.14
70217;BME280;57608;0.000;0.000;2022-09-30T00:03:46;98926.41;;;22.28;39.88
70217;BME280;57608;0.000;0.000;2022-09-30T00:06:14;98930.75;;;22.29;40.22
70217;BME280;57608;0.000;0.000;2022-09-30T00:08:40;98932.72;;;22.27;40.10
70217;BME280;57608;0.000;0.000;2022-09-30T00:11:33;98941.06;;;22.24;40.10
70217;BME280;57608;0.000;0.000;2022-09-30T00:13:59;98939.69;;;22.20;40.21
70217;BME280;57608;0.000;0.000;2022-09-30T00:16:28;98942.69;;;22.17;40.07
70217;BME280;57608;0.000;0.000;2022-09-30T00:18:54;98941.84;;;22.16;40.26
70217;BME280;57608;0.000;0.000;2022-09-30T00:21:20;98941.16;;;22.14;39.93
70217;BME280;57608;0.000;0.000;2022-09-30T00:23:45;98951.38;;;22.19;40.13
70217;BME280;57608;0.000;0.000;2022-09-30T00:26:14;98958.06;;;22.23;40.11
70217;BME280;57608;0.000;0.000;2022-09-30T00:28:41;98949.06;;;22.24;40.18
70217;BME280;57608;0.000;0.000;2022-09-30T00:31:10;98954.91;;;22.27;40.09
70217;BME280;57608;0.000;0.000;2022-09-30T00:33:36;98958.09;;;22.31;40.00
70217;BME280;57608;0.000;0.000;2022-09-30T00:36:02;98958.78;;;22.33;40.00
70217;BME280;57608;0.000;0.000;2022-09-30T00:38:28;98959.28;;;22.37;39.92
70217;BME280;57608;0.000;0.000;2022-09-30T00:40:54;98957.31;;;22.39;39.92
70217;BME280;57608;0.000;0.000;2022-09-30T00:46:28;98963.84;;;22.44;39.85
70217;BME280;57608;0.000;0.000;2022-09-30T00:48:56;98969.84;;;22.47;39.77
70217;BME280;57608;0.000;0.000;2022-09-30T00:51:46;98968.88;;;22.48;39.69
70217;BME280;57608;0.000;0.000;2022-09-30T00:54:16;98965.22;;;22.49;39.66
70217;BME280;57608;0.000;0.000;2022-09-30T00:56:48;98972.88;;;22.52;39.60
70217;BME280;57608;0.000;0.000;2022-09-30T00:59:40;98971.19;;;22.51;39.65
70217;BME280;57608;0.000;0.000;2022-09-30T01:02:08;98964.06;;;22.51;39.74
70217;BME280;57608;0.000;0.000;2022-09-30T01:04:34;98964.19;;;22.50;39.76
70217;BME280;57608;0.000;0.000;2022-09-30T01:07:04;98962.84;;;22.46;39.39
70217;BME280;57608;0.000;0.000;2022-09-30T01:09:33;98967.81;;;22.40;39.70
70217;BME280;57608;0.000;0.000;2022-09-30T01:11:59;98957.91;;;22.33;39.67
70217;BME280;57608;0.000;0.000;2022-09-30T01:14:28;98956.56;;;22.28;39.79
70217;BME280;57608;0.000;0.000;2022-09-30T01:28:12;98971.31;;;22.06;39.93
70217;BME280;57608;0.000;0.000;2022-09-30T01:33:43;98963.31;;;22.06;40.01
70217;BME280;57608;0.000;0.000;2022-09-30T01:46:47;98975.63;;;21.99;40.06
70217;BME280;57608;0.000;0.000;2022-09-30T01:49:26;98974.09;;;21.97;40.11
70217;BME280;57608;0.000;0.000;2022-09-30T01:52:03;98970.75;;;21.94;40.11
70217;BME280;57608;0.000;0.000;2022-09-30T01:54:54;98970.75;;;21.94;40.13
70217;BME280;57608;0.000;0.000;2022-09-30T01:57:29;98968.78;;;21.97;40.16
70217;BME280;57608;0.000;0.000;2022-09-30T02:00:03;98962.28;;;21.99;39.98
70217;BME280;57608;0.000;0.000;2022-09-30T02:02:35;98967.94;;;22.04;40.05
70217;BME280;57608;0.000;0.000;2022-09-30T02:05:13;98961.31;;;22.08;39.88
70217;BME280;57608;0.000;0.000;2022-09-30T02:07:55;98961.00;;;22.11;39.84
70217;BME280;57608;0.000;0.000;2022-09-30T02:10:30;98970.69;;;22.13;39.83
70217;BME280;57608;0.000;0.000;2022-09-30T02:13:08;98972.19;;;22.15;39.78
70217;BME280;57608;0.000;0.000;2022-09-30T02:15:38;98964.03;;;22.17;39.77
70217;BME280;57608;0.000;0.000;2022-09-30T02:18:20;98958.34;;;22.20;39.80
70217;BME280;57608;0.000;0.000;2022-09-30T02:20:50;98959.88;;;22.22;39.87
70217;BME280;57608;0.000;0.000;2022-09-30T02:23:22;98963.06;;;22.26;39.58
70217;BME280;57608;0.000;0.000;2022-09-30T02:26:06;98971.75;;;22.28;39.68
70217;BME280;57608;0.000;0.000;2022-09-30T02:28:37;98966.41;;;22.28;39.73
70217;BME280;57608;0.000;0.000;2022-09-30T02:31:04;98968.75;;;22.31;39.70
70217;BME280;57608;0.000;0.000;2022-09-30T02:33:49;98968.75;;;22.31;39.68
70217;BME280;57608;0.000;0.000;2022-09-30T02:36:29;98960.75;;;22.31;39.54
70217;BME280;57608;0.000;0.000;2022-09-30T02:39:04;98961.09;;;22.28;39.50
70217;BME280;57608;0.000;0.000;2022-09-30T02:41:37;98963.41;;;22.23;39.63
70217;BME280;57608;0.000;0.000;2022-09-30T02:44:04;98961.34;;;22.17;39.65
70217;BME280;57608;0.000;0.000;2022-09-30T02:46:44;98963.66;;;22.11;39.74
70217;BME280;57608;0.000;0.000;2022-09-30T02:52:06;98964.78;;;22.01;39.78
70217;BME280;57608;0.000;0.000;2022-09-30T02:55:18;98966.22;;;21.95;39.85
70217;BME280;57608;0.000;0.000;2022-09-30T03:00:26;98969.84;;;21.86;39.98
70217;BME280;57608;0.000;0.000;2022-09-30T03:03:04;98973.38;;;21.86;39.72
70217;BME280;57608;0.000;0.000;2022-09-30T03:05:31;98980.22;;;21.89;39.98
70217;BME280;57608;0.000;0.000;2022-09-30T03:07:57;98973.88;;;21.90;39.86
70217;BME280;57608;0.000;0.000;2022-09-30T03:10:23;98972.88;;;21.91;39.85
70217;BME280;57608;0.000;0.000;2022-09-30T03:30:15;98967.31;;;21.76;40.04
70217;BME280;57608;0.000;0.000;2022-09-30T03:44:21;98988.25;;;21.97;39.83
70217;BME280;57608;0.000;0.000;2022-09-30T03:46:55;98985.28;;;22.00;39.73
70217;BME280;57608;0.000;0.000;2022-09-30T03:49:25;98985.78;;;22.04;39.69
70217;BME280;57608;0.000;0.000;2022-09-30T03:51:53;98982.13;;;22.05;39.68
70217;BME280;57608;0.000;0.000;2022-09-30T03:54:19;98981.81;;;22.08;39.47
70217;BME280;57608;0.000;0.000;2022-09-30T03:56:44;98971.16;;;22.08;39.49
70217;BME280;57608;0.000;0.000;2022-09-30T03:59:22;98968.31;;;22.09;39.59
70217;BME280;57608;0.000;0.000;2022-09-30T04:01:49;98972.00;;;22.08;39.38
70217;BME280;57608;0.000;0.000;2022-09-30T04:04:14;98972.97;;;22.07;39.65
70217;BME280;57608;0.000;0.000;2022-09-30T04:06:39;98973.97;;;22.06;39.48
70217;BME280;57608;0.000;0.000;2022-09-30T04:09:05;98976.63;;;22.06;39.46
70217;BME280;57608;0.000;0.000;2022-09-30T04:11:30;98977.97;;;22.02;39.52
70217;BME280;57608;0.000;0.000;2022-09-30T04:13:56;98987.28;;;21.98;39.47
70217;BME280;57608;0.000;0.000;2022-09-30T04:16:21;98985.91;;;21.94;39.50
70217;BME280;57608;0.000;0.000;2022-09-30T04:18:47;98993.22;;;21.92;39.63
70217;BME280;57608;0.000;0.000;2022-09-30T04:21:13;98984.88;;;21.87;39.72
70217;BME280;57608;0.000;0.000;2022-09-30T04:23:41;98999.19;;;21.86;39.66
70217;BME280;57608;0.000;0.000;2022-09-30T04:26:10;99000.16;;;21.85;39.87
70217;BME280;57608;0.000;0.000;2022-09-30T04:28:35;98987.16;;;21.82;39.78
70217;BME280;57608;0.000;0.000;2022-09-30T04:31:02;98985.47;;;21.81;39.90
70217;BME280;57608;0.000;0.000;2022-09-30T04:33:28;98986.34;;;21.81;40.03
70217;BME280;57608;0.000;0.000;2022-09-30T04:35:55;98984.50;;;21.82;40.03
70217;BME280;57608;0.000;0.000;2022-09-30T04:38:21;98988.50;;;21.86;39.83
70217;BME280;57608;0.000;0.000;2022-09-30T04:40:47;98982.56;;;21.92;39.80
70217;BME280;57608;0.000;0.000;2022-09-30T04:43:15;98982.31;;;22.03;39.77
70217;BME280;57608;0.000;0.000;2022-09-30T04:45:45;98978.88;;;22.19;39.70
70217;BME280;57608;0.000;0.000;2022-09-30T04:48:12;98980.66;;;22.37;39.65
70217;BME280;57608;0.000;0.000;2022-09-30T04:50:37;98988.56;;;22.55;39.34
70217;BME280;57608;0.000;0.000;2022-09-30T04:53:11;98988.16;;;22.76;39.17
70217;BME280;57608;0.000;0.000;2022-09-30T04:55:39;98991.69;;;22.93;39.11
70217;BME280;57608;0.000;0.000;2022-09-30T04:58:04;98989.72;;;23.12;38.83
70217;BME280;57608;0.000;0.000;2022-09-30T05:00:30;98992.28;;;23.30;38.80
70217;BME280;57608;0.000;0.000;2022-09-30T05:02:55;98995.44;;;23.50;38.63
70217;BME280;57608;0.000;0.000;2022-09-30T05:05:21;99001.47;;;23.68;38.14
70217;BME280;57608;0.000;0.000;2022-09-30T05:07:47;99004.47;;;23.90;38.26
70217;BME280;57608;0.000;0.000;2022-09-30T05:10:12;98993.75;;;24.06;37.56
70217;BME280;57608;0.000;0.000;2022-09-30T05:12:38;98993.03;;;24.21;37.58
70217;BME280;57608;0.000;0.000;2022-09-30T05:15:08;98986.16;;;24.35;37.26
70217;BME280;57608;0.000;0.000;2022-09-30T05:17:34;98990.94;;;24.48;37.08
70217;BME280;57608;0.000;0.000;2022-09-30T05:20:00;98994.25;;;24.58;36.82
70217;BME280;57608;0.000;0.000;2022-09-30T05:22:27;98991.56;;;24.66;36.44
70217;BME280;57608;0.000;0.000;2022-09-30T05:24:53;98986.16;;;24.74;36.43
70217;BME280;57608;0.000;0.000;2022-09-30T05:27:21;98979.72;;;24.84;36.21
70217;BME280;57608;0.000;0.000;2022-09-30T05:29:47;98986.88;;;24.91;35.64
70217;BME280;57608;0.000;0.000;2022-09-30T05:32:12;98994.03;;;24.99;35.97
70217;BME280;57608;0.000;0.000;2022-09-30T05:34:38;98992.53;;;25.05;35.64
70217;BME280;57608;0.000;0.000;2022-09-30T05:37:04;99002.50;;;25.11;35.23
70217;BME280;57608;0.000;0.000;2022-09-30T05:39:30;99005.03;;;25.13;35.70
70217;BME280;57608;0.000;0.000;2022-09-30T05:41:56;99005.38;;;25.10;35.28
70217;BME280;57608;0.000;0.000;2022-09-30T05:44:22;98997.91;;;24.97;35.33
70217;BME280;57608;0.000;0.000;2022-09-30T05:46:47;98996.53;;;24.78;35.20
70217;BME280;57608;0.000;0.000;2022-09-30T05:49:13;98997.75;;;24.58;35.49
70217;BME280;57608;0.000;0.000;2022-09-30T05:51:38;98994.00;;;24.36;35.61
70217;BME280;57608;0.000;0.000;2022-09-30T05:54:04;99001.56;;;24.16;35.84
70217;BME280;57608;0.000;0.000;2022-09-30T05:56:29;99006.47;;;23.96;35.89
70217;BME280;57608;0.000;0.000;2022-09-30T05:58:54;99002.13;;;23.79;35.82
70217;BME280;57608;0.000;0.000;2022-09-30T06:01:20;99000.47;;;23.61;35.82
70217;BME280;57608;0.000;0.000;2022-09-30T06:03:46;99002.81;;;23.48;36.83
70217;BME280;57608;0.000;0.000;2022-09-30T06:06:13;98992.97;;;23.40;37.31
70217;BME280;57608;0.000;0.000;2022-09-30T06:08:39;98994.44;;;23.34;37.46
70217;BME280;57608;0.000;0.000;2022-09-30T06:11:15;98992.28;;;23.30;37.74
70217;BME280;57608;0.000;0.000;2022-09-30T06:13:41;98993.44;;;23.27;37.83
70217;BME280;57608;0.000;0.000;2022-09-30T06:16:09;98995.44;;;23.25;38.37
70217;BME280;57608;0.000;0.000;2022-09-30T06:18:34;98997.78;;;23.20;38.37
70217;BME280;57608;0.000;0.000;2022-09-30T06:21:03;98995.75;;;23.14;38.52
70217;BME280;57608;0.000;0.000;2022-09-30T06:23:30;98991.72;;;23.09;38.79
70217;BME280;57608;0.000;0.000;2022-09-30T06:25:56;98996.41;;;23.07;39.12
70217;BME280;57608;0.000;0.000;2022-09-30T06:28:22;98999.72;;;23.09;40.02
70217;BME280;57608;0.000;0.000;2022-09-30T06:30:48;99003.75;;;23.14;39.77
70217;BME280;57608;0.000;0.000;2022-09-30T06:33:16;98998.28;;;23.15;39.97
70217;BME280;57608;0.000;0.000;2022-09-30T06:35:42;98999.09;;;23.16;39.73
70217;BME280;57608;0.000;0.000;2022-09-30T06:38:09;98997.28;;;23.16;39.81
70217;BME280;57608;0.000;0.000;2022-09-30T06:40:35;98998.13;;;23.17;39.64
70217;BME280;57608;0.000;0.000;2022-09-30T06:43:01;98988.06;;;23.19;39.70
70217;BME280;57608;0.000;0.000;2022-09-30T06:45:27;98990.09;;;23.17;39.13
70217;BME280;57608;0.000;0.000;2022-09-30T06:47:57;98997.44;;;23.15;39.36
70217;BME280;57608;0.000;0.000;2022-09-30T06:50:23;99004.06;;;23.10;38.72
70217;BME280;57608;0.000;0.000;2022-09-30T06:52:48;98995.72;;;23.05;38.93
70217;BME280;57608;0.000;0.000;2022-09-30T06:55:16;99003.06;;;23.03;38.62
70217;BME280;57608;0.000;0.000;2022-09-30T06:57:42;99002.41;;;23.01;38.45
70217;BME280;57608;0.000;0.000;2022-09-30T07:00:09;99002.88;;;22.97;38.37
70217;BME280;57608;0.000;0.000;2022-09-30T07:02:35;99008.38;;;22.95;38.41
70217;BME280;57608;0.000;0.000;2022-09-30T07:05:01;99006.56;;;22.96;38.39
70217;BME280;57608;0.000;0.000;2022-09-30T07:07:27;99003.91;;;22.96;38.49
70217;BME280;57608;0.000;0.000;2022-09-30T07:09:53;99011.91;;;22.96;38.55
70217;BME280;57608;0.000;0.000;2022-09-30T07:12:19;99010.88;;;22.97;38.39
70217;BME280;57608;0.000;0.000;2022-09-30T07:14:44;99011.06;;;22.95;38.41
70217;BME280;57608;0.000;0.000;2022-09-30T07:17:10;99014.72;;;22.86;38.22
70217;BME280;57608;0.000;0.000;2022-09-30T07:19:35;99014.34;;;22.81;38.37
70217;BME280;57608;0.000;0.000;2022-09-30T07:22:01;99009.66;;;22.74;38.50
70217;BME280;57608;0.000;0.000;2022-09-30T07:24:45;99016.03;;;22.73;38.61
70217;BME280;57608;0.000;0.000;2022-09-30T07:27:10;99019.00;;;22.70;38.75
70217;BME280;57608;0.000;0.000;2022-09-30T07:29:40;99022.00;;;22.67;38.98
70217;BME280;57608;0.000;0.000;2022-09-30T07:32:07;99017.28;;;22.61;38.86
70217;BME280;57608;0.000;0.000;2022-09-30T07:34:33;99017.63;;;22.58;38.98
70217;BME280;57608;0.000;0.000;2022-09-30T07:36:59;99020.47;;;22.56;39.15
70217;BME280;57608;0.000;0.000;2022-09-30T07:39:25;99015.25;;;22.55;39.00
70217;BME280;57608;0.000;0.000;2022-09-30T07:41:52;99012.59;;;22.55;39.20
70217;BME280;57608;0.000;0.000;2022-09-30T07:44:17;99014.97;;;22.58;39.19
70217;BME280;57608;0.000;0.000;2022-09-30T07:46:43;99003.13;;;22.60;39.55
70217;BME280;57608;0.000;0.000;2022-09-30T07:49:13;99012.66;;;22.63;39.75
70217;BME280;57608;0.000;0.000;2022-09-30T07:51:40;99010.09;;;22.61;39.79
70217;BME280;57608;0.000;0.000;2022-09-30T07:54:11;99013.81;;;22.60;39.79
70217;BME280;57608;0.000;0.000;2022-09-30T07:56:38;99025.63;;;22.58;39.91
70217;BME280;57608;0.000;0.000;2022-09-30T07:59:05;99029.28;;;22.57;39.95
70217;BME280;57608;0.000;0.000;2022-09-30T08:01:31;99020.28;;;22.58;40.26
70217;BME280;57608;0.000;0.000;2022-09-30T08:04:02;99023.63;;;22.60;39.96
70217;BME280;57608;0.000;0.000;2022-09-30T08:06:30;99027.50;;;22.66;39.87
70217;BME280;57608;0.000;0.000;2022-09-30T08:08:57;99033.34;;;22.69;39.95
70217;BME280;57608;0.000;0.000;2022-09-30T08:11:24;99032.88;;;22.74;39.91
70217;BME280;57608;0.000;0.000;2022-09-30T08:13:50;99026.38;;;22.76;40.14
70217;BME280;57608;0.000;0.000;2022-09-30T08:16:17;99025.91;;;22.81;40.06
70217;BME280;57608;0.000;0.000;2022-09-30T08:18:43;99020.22;;;22.84;40.04
70217;BME280;57608;0.000;0.000;2022-09-30T08:21:08;99009.19;;;22.87;39.85
70217;BME280;57608;0.000;0.000;2022-09-30T08:23:34;99002.69;;;22.90;39.90
70217;BME280;57608;0.000;0.000;2022-09-30T08:26:08;99000.72;;;22.92;40.05
70217;BME280;57608;0.000;0.000;2022-09-30T08:28:37;99005.72;;;22.95;39.97
70217;BME280;57608;0.000;0.000;2022-09-30T08:31:05;99003.72;;;22.97;39.84
70217;BME280;57608;0.000;0.000;2022-09-30T08:33:31;98998.03;;;23.00;39.97
70217;BME280;57608;0.000;0.000;2022-09-30T08:36:05;98997.72;;;23.03;39.87
70217;BME280;57608;0.000;0.000;2022-09-30T08:38:32;98996.06;;;23.02;39.71
70217;BME280;57608;0.000;0.000;2022-09-30T08:43:48;98992.41;;;23.03;39.86
70217;BME280;57608;0.000;0.000;2022-09-30T08:49:08;98998.91;;;23.01;40.00
70217;BME280;57608;0.000;0.000;2022-09-30T08:51:42;98997.53;;;22.97;40.10
70217;BME280;57608;0.000;0.000;2022-09-30T08:54:13;98995.38;;;22.92;40.18
70217;BME280;57608;0.000;0.000;2022-09-30T08:56:41;98991.34;;;22.88;40.38
70217;BME280;57608;0.000;0.000;2022-09-30T09:01:53;98987.66;;;22.81;40.41
70217;BME280;57608;0.000;0.000;2022-09-30T09:04:22;98988.97;;;22.76;40.30
70217;BME280;57608;0.000;0.000;2022-09-30T09:09:43;98988.28;;;22.74;40.62
70217;BME280;57608;0.000;0.000;2022-09-30T09:12:25;98986.31;;;22.76;41.06
70217;BME280;57608;0.000;0.000;2022-09-30T09:17:51;98982.00;;;22.84;41.76
70217;BME280;57608;0.000;0.000;2022-09-30T09:20:15;98980.84;;;22.86;41.58
70217;BME280;57608;0.000;0.000;2022-09-30T09:22:43;98977.47;;;22.84;41.73
70217;BME280;57608;0.000;0.000;2022-09-30T09:25:24;98977.81;;;22.81;41.53
70217;BME280;57608;0.000;0.000;2022-09-30T09:27:57;98986.31;;;22.76;41.87
70217;BME280;57608;0.000;0.000;2022-09-30T09:30:26;98988.28;;;22.74;41.85
70217;BME280;57608;0.000;0.000;2022-09-30T09:33:00;98996.81;;;22.70;41.80
70217;BME280;57608;0.000;0.000;2022-09-30T09:38:30;98998.63;;;22.69;41.81
70217;BME280;57608;0.000;0.000;2022-09-30T09:57:11;98995.88;;;22.96;41.76
70217;BME280;57608;0.000;0.000;2022-09-30T09:59:58;98996.53;;;22.98;41.60
70217;BME280;57608;0.000;0.000;2022-09-30T10:02:29;98996.38;;;22.99;41.78
70217;BME280;57608;0.000;0.000;2022-09-30T10:04:56;98994.22;;;23.03;41.71
70217;BME280;57608;0.000;0.000;2022-09-30T10:07:28;98994.03;;;23.04;41.72
70217;BME280;57608;0.000;0.000;2022-09-30T10:10:17;98992.06;;;23.06;41.78
70217;BME280;57608;0.000;0.000;2022-09-30T10:12:43;98990.06;;;23.08;41.61
70217;BME280;57608;0.000;0.000;2022-09-30T10:15:17;98986.38;;;23.09;41.70
70217;BME280;57608;0.000;0.000;2022-09-30T10:17:55;98993.38;;;23.10;41.65
70217;BME280;57608;0.000;0.000;2022-09-30T10:20:33;98985.53;;;23.09;41.69
70217;BME280;57608;0.000;0.000;2022-09-30T10:23:30;98986.53;;;23.08;41.75
70217;BME280;57608;0.000;0.000;2022-09-30T10:34:30;98980.84;;;22.86;41.92
70217;BME280;57608;0.000;0.000;2022-09-30T10:36:56;98978.66;;;22.82;41.94
70217;BME280;57608;0.000;0.000;2022-09-30T10:39:29;98980.97;;;22.76;42.15
70217;BME280;57608;0.000;0.000;2022-09-30T10:42:17;98997.31;;;22.73;42.18
70217;BME280;57608;0.000;0.000;2022-09-30T10:44:55;98992.28;;;22.70;42.05
70217;BME280;57608;0.000;0.000;2022-09-30T10:47:23;98990.63;;;22.69;42.10
70217;BME280;57608;0.000;0.000;2022-09-30T10:50:00;98985.78;;;22.73;42.23
70217;BME280;57608;0.000;0.000;2022-09-30T10:52:39;98984.78;;;22.74;42.18
70217;BME280;57608;0.000;0.000;2022-09-30T10:55:33;98979.28;;;22.75;42.07
70217;BME280;57608;0.000;0.000;2022-09-30T11:01:23;98984.78;;;22.74;42.15
70217;BME280;57608;0.000;0.000;2022-09-30T11:06:45;98992.63;;;22.67;42.52
70217;BME280;57608;0.000;0.000;2022-09-30T11:09:52;98987.94;;;22.61;42.25
70217;BME280;57608;0.000;0.000;2022-09-30T11:12:34;98979.75;;;22.63;42.44
70217;BME280;57608;0.000;0.000;2022-09-30T11:15:18;98980.59;;;22.63;42.48
70217;BME280;57608;0.000;0.000;2022-09-30T11:17:49;98980.78;;;22.70;42.30
70217;BME280;57608;0.000;0.000;2022-09-30T11:20:21;98983.81;;;22.75;42.21
70217;BME280;57608;0.000;0.000;2022-09-30T11:23:02;98982.47;;;22.79;42.16
70217;BME280;57608;0.000;0.000;2022-09-30T11:25:41;98974.97;;;22.83;42.32
70217;BME280;57608;0.000;0.000;2022-09-30T11:28:25;98974.47;;;22.87;42.34
70217;BME280;57608;0.000;0.000;2022-09-30T11:39:09;98983.69;;;23.01;42.29
70217;BME280;57608;0.000;0.000;2022-09-30T11:41:54;98990.38;;;23.05;42.22
70217;BME280;57608;0.000;0.000;2022-09-30T11:44:36;98989.38;;;23.06;42.20
70217;BME280;57608;0.000;0.000;2022-09-30T11:47:59;98985.53;;;23.09;42.14
70217;BME280;57608;0.000;0.000;2022-09-30T11:50:07;98995.06;;;23.12;42.21
70217;BME280;57608;0.000;0.000;2022-09-30T11:52:58;98991.41;;;23.13;42.01
70217;BME280;57608;0.000;0.000;2022-09-30T11:58:03;99002.41;;;23.09;42.36
70217;BME280;57608;0.000;0.000;2022-09-30T12:00:31;98997.72;;;23.03;42.56
70217;BME280;57608;0.000;0.000;2022-09-30T12:05:39;99007.88;;;22.91;42.56
70217;BME280;57608;0.000;0.000;2022-09-30T12:08:13;99018.38;;;22.85;42.77
70217;BME280;57608;0.000;0.000;2022-09-30T12:11:01;99014.69;;;22.77;42.55
70217;BME280;57608;0.000;0.000;2022-09-30T12:13:38;99009.00;;;22.72;42.66
70217;BME280;57608;0.000;0.000;2022-09-30T12:16:10;99006.34;;;22.72;42.95
70217;BME280;57608;0.000;0.000;2022-09-30T12:18:43;99006.50;;;22.71;43.11
70217;BME280;57608;0.000;0.000;2022-09-30T12:21:27;99007.31;;;22.71;43.13
70217;BME280;57608;0.000;0.000;2022-09-30T12:24:20;99019.84;;;22.71;43.15
70217;BME280;57608;0.000;0.000;2022-09-30T12:26:48;99006.50;;;22.71;43.19
70217;BME280;57608;0.000;0.000;2022-09-30T12:29:38;99013.34;;;22.73;43.38
70217;BME280;57608;0.000;0.000;2022-09-30T12:35:37;99018.69;;;22.73;43.13
70217;BME280;57608;0.000;0.000;2022-09-30T12:49:28;99022.34;;;22.72;43.17
70217;BME280;57608;0.000;0.000;2022-09-30T12:51:58;99016.84;;;22.74;43.20
70217;BME280;57608;0.000;0.000;2022-09-30T12:54:30;99020.56;;;22.81;42.89
70217;BME280;57608;0.000;0.000;2022-09-30T12:57:01;99025.38;;;22.86;43.17
70217;BME280;57608;0.000;0.000;2022-09-30T12:59:35;99019.72;;;22.89;43.02
70217;BME280;57608;0.000;0.000;2022-09-30T13:02:03;99015.56;;;22.94;43.02
70217;BME280;57608;0.000;0.000;2022-09-30T13:04:38;99010.75;;;22.98;42.94
70217;BME280;57608;0.000;0.000;2022-09-30T13:10:23;99021.44;;;23.06;42.89
70217;BME280;57608;0.000;0.000;2022-09-30T13:23:44;99027.34;;;23.18;43.00
70217;BME280;57608;0.000;0.000;2022-09-30T13:29:25;99021.66;;;23.21;43.08
70217;BME280;57608;0.000;0.000;2022-09-30T13:34:22;99029.84;;;23.20;43.04
70217;BME280;57608;0.000;0.000;2022-09-30T13:39:18;99031.50;;;23.21;43.04
70217;BME280;57608;0.000;0.000;2022-09-30T13:42:00;99028.50;;;23.16;42.75
70217;BME280;57608;0.000;0.000;2022-09-30T13:44:36;99037.81;;;23.12;42.80
70217;BME280;57608;0.000;0.000;2022-09-30T13:47:17;99053.34;;;23.08;42.89
70217;BME280;57608;0.000;0.000;2022-09-30T13:50:15;99053.97;;;23.02;42.94
70217;BME280;57608;0.000;0.000;2022-09-30T13:52:47;99048.16;;;22.98;42.95
70217;BME280;57608;0.000;0.000;2022-09-30T13:55:19;99053.97;;;22.93;43.32
70217;BME280;57608;0.000;0.000;2022-09-30T14:00:19;99051.28;;;22.85;43.33
70217;BME280;57608;0.000;0.000;2022-09-30T14:23:56;99069.16;;;22.93;43.19
70217;BME280;57608;0.000;0.000;2022-09-30T14:26:56;99067.66;;;22.99;43.03
70217;BME280;57608;0.000;0.000;2022-09-30T14:29:46;99071.69;;;23.03;43.45
70217;BME280;57608;0.000;0.000;2022-09-30T14:32:24;99077.53;;;23.06;43.35
70217;BME280;57608;0.000;0.000;2022-09-30T14:34:51;99086.91;;;23.10;43.25
70217;BME280;57608;0.000;0.000;2022-09-30T14:37:25;99078.59;;;23.14;43.26
70217;BME280;57608;0.000;0.000;2022-09-30T14:39:52;99087.28;;;23.16;43.38
70217;BME280;57608;0.000;0.000;2022-09-30T14:42:34;99080.94;;;23.17;42.94
70217;BME280;57608;0.000;0.000;2022-09-30T14:45:04;99083.44;;;23.18;42.70
70217;BME280;57608;0.000;0.000;2022-09-30T14:47:32;99088.16;;;23.16;43.19
70217;BME280;57608;0.000;0.000;2022-09-30T14:49:59;99083.63;;;23.17;43.10
70217;BME280;57608;0.000;0.000;2022-09-30T14:52:44;99089.63;;;23.19;42.97
70217;BME280;57608;0.000;0.000;2022-09-30T14:58:11;99088.47;;;23.21;42.87
70217;BME280;57608;0.000;0.000;2022-09-30T15:00:37;99081.59;;;23.19;42.99
70217;BME280;57608;0.000;0.000;2022-09-30T15:03:10;99090.81;;;23.24;42.93
70217;BME280;57608;0.000;0.000;2022-09-30T15:05:36;99093.34;;;23.26;43.00
70217;BME280;57608;0.000;0.000;2022-09-30T15:08:01;99098.16;;;23.22;42.92
70217;BME280;57608;0.000;0.000;2022-09-30T15:10:28;99095.66;;;23.21;43.08
70217;BME280;57608;0.000;0.000;2022-09-30T15:12:56;99090.94;;;23.15;43.01
70217;BME280;57608;0.000;0.000;2022-09-30T15:17:48;99106.25;;;23.04;43.13
70217;BME280;57608;0.000;0.000;2022-09-30T15:20:31;99104.91;;;23.00;43.19
70217;BME280;57608;0.000;0.000;2022-09-30T15:23:00;99112.56;;;22.95;43.38
70217;BME280;57608;0.000;0.000;2022-09-30T15:25:28;99109.53;;;22.90;43.22
70217;BME280;57608;0.000;0.000;2022-09-30T15:27:54;99117.72;;;22.88;43.80
70217;BME280;57608;0.000;0.000;2022-09-30T15:30:23;99119.03;;;22.84;43.33
70217;BME280;57608;0.000;0.000;2022-09-30T15:32:55;99112.69;;;22.85;43.26
70217;BME280;57608;0.000;0.000;2022-09-30T15:35:21;99114.38;;;22.86;43.53
70217;BME280;57608;0.000;0.000;2022-09-30T15:37:48;99119.56;;;22.88;43.25
70217;BME280;57608;0.000;0.000;2022-09-30T15:40:25;99126.25;;;22.92;43.42
70217;BME280;57608;0.000;0.000;2022-09-30T15:43:12;99133.94;;;22.95;43.41
70217;BME280;57608;0.000;0.000;2022-09-30T15:45:47;99131.94;;;22.97;43.33
70217;BME280;57608;0.000;0.000;2022-09-30T15:50:46;99134.81;;;23.04;43.47
70217;BME280;57608;0.000;0.000;2022-09-30T15:55:46;99132.31;;;23.10;43.40
70217;BME280;57608;0.000;0.000;2022-09-30T15:58:35;99146.38;;;23.13;43.29
70217;BME280;57608;0.000;0.000;2022-09-30T16:03:35;99141.59;;;23.16;43.46
70217;BME280;57608;0.000;0.000;2022-09-30T16:06:06;99142.06;;;23.20;43.14
70217;BME280;57608;0.000;0.000;2022-09-30T16:08:42;99146.25;;;23.22;43.33
70217;BME280;57608;0.000;0.000;2022-09-30T16:11:09;99139.94;;;23.23;43.04
70217;BME280;57608;0.000;0.000;2022-09-30T16:13:43;99137.78;;;23.27;42.92
70217;BME280;57608;0.000;0.000;2022-09-30T16:16:21;99134.09;;;23.28;43.16
70217;BME280;57608;0.000;0.000;2022-09-30T16:18:48;99142.13;;;23.28;43.17
70217;BME280;57608;0.000;0.000;2022-09-30T16:21:42;99140.28;;;23.29;43.35
70217;BME280;57608;0.000;0.000;2022-09-30T16:27:18;99150.78;;;23.30;43.24
70217;BME280;57608;0.000;0.000;2022-09-30T16:29:44;99146.44;;;23.29;43.28
70217;BME280;57608;0.000;0.000;2022-09-30T16:32:10;99150.78;;;23.30;43.35
70217;BME280;57608;0.000;0.000;2022-09-30T16:34:38;99158.81;;;23.30;43.32
70217;BME280;57608;0.000;0.000;2022-09-30T16:37:11;99161.19;;;23.33;43.41
70217;BME280;57608;0.000;0.000;2022-09-30T16:39:37;99167.19;;;23.35;43.14
70217;BME280;57608;0.000;0.000;2022-09-30T16:42:02;99163.84;;;23.33;43.17
70217;BME280;57608;0.000;0.000;2022-09-30T16:44:31;99161.31;;;23.32;42.98
70217;BME280;57608;0.000;0.000;2022-09-30T16:47:02;99164.50;;;23.27;43.31
70217;BME280;57608;0.000;0.000;2022-09-30T16:49:28;99163.28;;;23.21;43.20
70217;BME280;57608;0.000;0.000;2022-09-30T16:51:54;99166.47;;;23.17;43.32